Soure, Brazil
Current Conditions -  °F | °C
As of 2:00 AM on Sunday 28 Dec 2014 (Local Time) from SBBE Reporting Station
Clear Clear  
Wind Chill: 77°   Ceiling: Unl
Heat Index: 78°   Visibility: 6mi
Dew Point: 73°   Wind: 7mph
Humidity: 89%   Direction: 80°E
Pressure: 29.85"   Gusts: NA
Location:  0.72°S, 48.52°W
Report Text: SBBE 280500Z 08006KT CAVOK 25/23 Q1011
Loading
Personal Weather Stations






























Interactive Weather Map New forecast layout! Learn more

10-Day Weather Forecast

Advertisements
Track Severe Weather on mobile